createdAt,value
2022-09-13T00:00:26.803Z,82.44
2022-09-13T00:02:57.784Z,82.76
2022-09-13T00:05:29.416Z,82.73
2022-09-13T00:08:00.547Z,82.78
2022-09-13T00:10:32.127Z,82.81
2022-09-13T00:13:03.009Z,82.87
2022-09-13T00:15:34.118Z,82.65
2022-09-13T00:18:05.064Z,82.63
2022-09-13T00:20:35.858Z,82.71
2022-09-13T00:23:06.421Z,82.96
2022-09-13T00:25:37.600Z,82.80
2022-09-13T00:28:08.833Z,83.06
2022-09-13T00:30:39.715Z,82.85
2022-09-13T00:33:10.501Z,82.84
2022-09-13T00:35:41.299Z,83.10
2022-09-13T00:38:12.022Z,82.76
2022-09-13T00:40:42.909Z,82.81
2022-09-13T00:43:23.252Z,82.65
2022-09-13T00:45:54.205Z,82.86
2022-09-13T00:48:28.273Z,82.70
2022-09-13T00:50:59.677Z,82.71
2022-09-13T00:53:35.924Z,82.55
2022-09-13T00:56:31.785Z,82.43
2022-09-13T00:59:09.507Z,82.63
2022-09-13T01:01:47.862Z,82.51
2022-09-13T01:04:20.822Z,82.14
2022-09-13T01:06:54.448Z,82.44
2022-09-13T01:09:26.720Z,82.53
2022-09-13T01:12:13.295Z,82.85
2022-09-13T01:14:46.665Z,82.51
2022-09-13T01:17:17.561Z,82.57
2022-09-13T01:19:48.392Z,82.30
2022-09-13T01:22:39.827Z,82.41
2022-09-13T01:25:29.804Z,82.30
2022-09-13T01:28:03.430Z,82.26
2022-09-13T01:30:51.384Z,82.08
2022-09-13T01:33:25.561Z,81.98
2022-09-13T01:36:27.371Z,81.85
2022-09-13T01:39:08.061Z,81.75
2022-09-13T01:41:53.711Z,81.58
2022-09-13T01:44:39.262Z,81.95
2022-09-13T01:47:26.926Z,82.01
2022-09-13T01:50:29.465Z,81.20
2022-09-13T01:53:25.345Z,80.87
2022-09-13T01:56:43.820Z,80.66
2022-09-13T01:59:31.213Z,80.69
2022-09-13T02:02:29.960Z,80.90
2022-09-13T02:05:08.760Z,81.12
2022-09-13T02:10:45.634Z,81.11
2022-09-13T02:13:28.507Z,80.53
2022-09-13T02:16:09.377Z,80.92
2022-09-13T02:18:46.963Z,81.17
2022-09-13T02:21:32.108Z,81.60
2022-09-13T02:24:16.696Z,81.33
2022-09-13T02:26:49.992Z,80.97
2022-09-13T02:29:24.174Z,80.83
2022-09-13T02:32:03.382Z,81.02
2022-09-13T02:35:03.398Z,80.09
2022-09-13T02:37:39.072Z,79.78
2022-09-13T02:40:24.642Z,79.89
2022-09-13T02:43:30.659Z,80.12
2022-09-13T02:46:28.360Z,80.00
2022-09-13T02:49:19.705Z,79.86
2022-09-13T02:52:22.782Z,79.78
2022-09-13T02:55:09.048Z,79.71
2022-09-13T02:58:05.709Z,79.63
2022-09-13T03:00:37.203Z,79.72
2022-09-13T03:03:21.813Z,79.60
2022-09-13T03:05:52.972Z,79.87
2022-09-13T03:08:25.033Z,79.87
2022-09-13T03:11:17.975Z,79.96
2022-09-13T03:13:57.788Z,79.90
2022-09-13T03:16:54.628Z,80.01
2022-09-13T03:19:52.725Z,80.27
2022-09-13T03:22:32.162Z,79.53
2022-09-13T03:25:39.844Z,79.20
2022-09-13T03:28:44.301Z,79.20
2022-09-13T03:31:53.448Z,79.60
2022-09-13T03:34:48.353Z,79.15
2022-09-13T03:37:30.683Z,78.87
2022-09-13T03:40:04.729Z,79.21
2022-09-13T03:42:52.347Z,79.52
2022-09-13T03:45:33.865Z,79.38
2022-09-13T03:48:07.397Z,79.47
2022-09-13T03:50:39.316Z,79.36
2022-09-13T03:53:14.817Z,79.30
2022-09-13T03:55:48.112Z,78.58
2022-09-13T03:58:22.633Z,78.36
2022-09-13T04:00:57.674Z,78.18
2022-09-13T04:03:28.804Z,77.62
2022-09-13T04:05:59.499Z,77.19
2022-09-13T04:08:30.118Z,77.37
2022-09-13T04:11:01.131Z,77.46
2022-09-13T04:13:32.100Z,76.37
2022-09-13T04:16:07.911Z,76.06
2022-09-13T04:18:39.327Z,76.44
2022-09-13T04:21:10.123Z,75.68
2022-09-13T04:23:41.062Z,76.16
2022-09-13T04:26:12.521Z,75.35
2022-09-13T04:28:44.673Z,75.02
2022-09-13T04:31:22.284Z,74.79
2022-09-13T04:33:54.716Z,74.41
2022-09-13T04:36:25.868Z,75.36
2022-09-13T04:38:56.804Z,76.26
2022-09-13T04:41:27.594Z,76.08
2022-09-13T04:43:58.889Z,75.89
2022-09-13T04:46:30.056Z,75.14
2022-09-13T04:49:01.668Z,74.58
2022-09-13T04:51:32.596Z,75.32
2022-09-13T04:54:03.563Z,74.79
2022-09-13T04:56:34.386Z,74.82
2022-09-13T04:59:05.078Z,74.55
2022-09-13T05:01:36.374Z,75.07
2022-09-13T05:04:08.788Z,74.12
2022-09-13T05:06:40.866Z,74.33
2022-09-13T05:09:16.853Z,74.30
2022-09-13T05:11:47.585Z,74.42
2022-09-13T05:14:18.445Z,74.39
2022-09-13T05:16:49.483Z,74.86
2022-09-13T05:19:20.461Z,74.44
2022-09-13T05:21:51.156Z,74.77
2022-09-13T05:24:22.009Z,74.46
2022-09-13T05:26:52.933Z,74.70
2022-09-13T05:29:23.731Z,74.24
2022-09-13T05:31:54.539Z,73.58
2022-09-13T05:34:25.477Z,74.09
2022-09-13T05:36:56.503Z,74.01
2022-09-13T05:39:33.902Z,74.07
2022-09-13T05:42:10.502Z,73.67
2022-09-13T05:44:41.312Z,73.30
2022-09-13T05:47:12.317Z,72.68
2022-09-13T05:50:08.376Z,72.93
2022-09-13T05:52:33.830Z,72.94
2022-09-13T05:55:04.793Z,72.95
2022-09-13T05:57:35.513Z,72.94
2022-09-13T06:00:07.646Z,72.25
2022-09-13T06:02:42.878Z,72.84
2022-09-13T06:05:13.523Z,72.84
2022-09-13T06:07:44.964Z,73.59
2022-09-13T06:10:16.084Z,73.27
2022-09-13T06:12:47.034Z,73.50
2022-09-13T06:15:18.335Z,73.42
2022-09-13T06:17:49.647Z,71.71
2022-09-13T06:20:20.847Z,71.60
2022-09-13T06:22:52.475Z,72.22
2022-09-13T06:25:23.376Z,71.16
2022-09-13T06:27:54.130Z,71.18
2022-09-13T06:30:24.905Z,70.49
2022-09-13T06:32:55.967Z,71.38
2022-09-13T06:35:26.908Z,71.82
2022-09-13T06:38:01.476Z,71.55
2022-09-13T06:40:32.429Z,71.85
2022-09-13T06:43:03.253Z,72.26
2022-09-13T06:45:33.914Z,71.91
2022-09-13T06:48:04.841Z,71.90
2022-09-13T06:50:35.655Z,72.05
2022-09-13T06:53:06.952Z,72.61
2022-09-13T06:55:38.026Z,72.07
2022-09-13T06:58:09.105Z,71.68
2022-09-13T07:00:39.890Z,71.56
2022-09-13T07:03:11.500Z,71.94
2022-09-13T07:05:42.204Z,71.96
2022-09-13T07:08:12.995Z,71.94
2022-09-13T07:10:43.942Z,72.23
2022-09-13T07:13:14.854Z,72.32
2022-09-13T07:15:45.640Z,72.47
2022-09-13T07:18:16.321Z,71.77
2022-09-13T07:20:47.234Z,72.05
2022-09-13T07:23:17.782Z,72.38
2022-09-13T07:25:57.763Z,72.14
2022-09-13T07:28:31.195Z,72.96
2022-09-13T07:31:16.589Z,72.44
2022-09-13T07:33:48.498Z,72.75
2022-09-13T07:36:19.162Z,73.13
2022-09-13T07:38:50.900Z,73.35
2022-09-13T07:41:26.798Z,73.00
2022-09-13T07:43:58.321Z,73.18
2022-09-13T07:46:31.553Z,73.22
2022-09-13T07:49:04.742Z,73.15
2022-09-13T07:51:38.435Z,73.38
2022-09-13T07:54:15.487Z,72.92
2022-09-13T07:56:46.344Z,73.22
2022-09-13T07:59:19.448Z,73.38
2022-09-13T08:01:54.764Z,73.09
2022-09-13T08:04:28.508Z,72.89
2022-09-13T08:06:59.826Z,72.64
2022-09-13T08:09:31.083Z,71.94
2022-09-13T08:12:01.947Z,71.33
2022-09-13T08:14:34.349Z,71.56
2022-09-13T08:17:05.074Z,70.55
2022-09-13T08:19:35.965Z,70.76
2022-09-13T08:22:06.767Z,70.99
2022-09-13T08:24:38.095Z,71.32
2022-09-13T08:27:20.458Z,72.21
2022-09-13T08:29:51.817Z,72.46
2022-09-13T08:32:22.381Z,73.23
2022-09-13T08:34:53.314Z,73.75
2022-09-13T08:37:23.975Z,74.89
2022-09-13T08:39:54.743Z,75.49
2022-09-13T08:42:52.020Z,76.43
2022-09-13T08:45:22.933Z,76.19
2022-09-13T08:48:06.913Z,77.16
2022-09-13T08:50:39.579Z,76.73
2022-09-13T08:53:23.916Z,76.52
2022-09-13T08:56:11.159Z,76.26
2022-09-13T08:59:11.563Z,76.29
2022-09-13T09:01:54.469Z,76.07
2022-09-13T09:04:35.110Z,76.14
2022-09-13T09:07:27.029Z,75.97
2022-09-13T09:10:23.469Z,75.62
2022-09-13T09:13:24.267Z,75.30
2022-09-13T09:16:02.079Z,75.67
2022-09-13T09:18:38.291Z,76.06
2022-09-13T09:21:18.364Z,76.08
2022-09-13T09:23:51.798Z,76.64
2022-09-13T09:26:26.672Z,76.55
2022-09-13T09:29:25.239Z,76.78
2022-09-13T09:32:01.996Z,76.81
2022-09-13T09:34:45.252Z,77.24
2022-09-13T09:37:31.515Z,77.15
2022-09-13T09:40:07.270Z,77.27
2022-09-13T09:42:50.316Z,76.54
2022-09-13T09:45:28.401Z,77.07
2022-09-13T09:48:02.280Z,77.16
2022-09-13T09:50:39.155Z,77.17
2022-09-13T09:53:39.223Z,77.11
2022-09-13T09:56:19.394Z,78.24
2022-09-13T09:58:50.780Z,77.81
2022-09-13T10:01:33.325Z,78.16
2022-09-13T10:04:23.536Z,77.75
2022-09-13T10:07:13.776Z,78.45
2022-09-13T10:10:11.629Z,78.65
2022-09-13T10:12:43.514Z,78.94
2022-09-13T10:15:23.905Z,78.89
2022-09-13T10:18:16.826Z,80.07
2022-09-13T10:21:22.657Z,80.10
2022-09-13T10:23:54.469Z,80.00
2022-09-13T10:26:29.289Z,80.31
2022-09-13T10:29:10.076Z,80.02
2022-09-13T10:31:44.639Z,80.00
2022-09-13T10:34:16.733Z,80.31
2022-09-13T10:37:15.526Z,80.08
2022-09-13T10:39:55.530Z,80.16
2022-09-13T10:42:29.151Z,80.40
2022-09-13T10:45:04.199Z,80.76
2022-09-13T10:47:53.015Z,80.56
2022-09-13T10:50:38.664Z,80.50
2022-09-13T10:53:42.822Z,80.39
2022-09-13T10:56:24.222Z,80.47
2022-09-13T10:58:54.994Z,80.62
2022-09-13T11:01:25.715Z,81.12
2022-09-13T11:04:22.193Z,81.22
2022-09-13T11:07:06.517Z,81.51
2022-09-13T11:09:51.846Z,81.70
2022-09-13T11:12:31.195Z,81.25
2022-09-13T11:15:28.757Z,81.21
2022-09-13T11:18:08.024Z,81.51
2022-09-13T11:20:55.212Z,81.87
2022-09-13T11:23:39.729Z,81.79
2022-09-13T11:26:13.260Z,81.72
2022-09-13T11:29:09.572Z,81.57
2022-09-13T11:31:57.440Z,81.45
2022-09-13T11:34:31.654Z,81.76
2022-09-13T11:37:28.417Z,82.36
2022-09-13T11:40:23.911Z,82.26
2022-09-13T11:43:28.248Z,82.32
2022-09-13T11:46:07.441Z,82.61
2022-09-13T11:49:23.163Z,83.10
2022-09-13T11:52:02.853Z,82.59
2022-09-13T11:54:50.764Z,82.64
2022-09-13T11:57:29.935Z,82.41
2022-09-13T12:00:05.282Z,82.53
2022-09-13T12:03:00.589Z,82.77
2022-09-13T12:05:42.429Z,82.50
2022-09-13T12:08:13.221Z,82.57
2022-09-13T12:11:00.510Z,82.43
2022-09-13T12:13:35.592Z,82.25
2022-09-13T12:16:14.441Z,82.91
2022-09-13T12:18:52.994Z,82.57
2022-09-13T12:21:29.031Z,82.80
2022-09-13T12:24:08.510Z,82.48
2022-09-13T12:26:48.172Z,81.79
2022-09-13T12:29:32.604Z,81.45
2022-09-13T12:32:07.779Z,81.45
2022-09-13T12:35:03.198Z,81.41
2022-09-13T12:37:54.997Z,80.92
2022-09-13T12:40:53.250Z,80.71
2022-09-13T12:43:53.584Z,80.81
2022-09-13T12:46:45.611Z,80.50
2022-09-13T12:49:38.933Z,80.38
2022-09-13T12:53:00.039Z,80.75
2022-09-13T12:55:47.015Z,80.50
2022-09-13T12:58:41.365Z,80.53
2022-09-13T13:01:20.890Z,80.78
2022-09-13T13:04:16.394Z,80.86
2022-09-13T13:06:58.672Z,80.63
2022-09-13T13:09:49.528Z,81.01
2022-09-13T13:12:44.118Z,80.86
2022-09-13T13:15:29.976Z,80.65
2022-09-13T13:18:21.306Z,80.83
2022-09-13T13:20:58.210Z,80.74
2022-09-13T13:23:34.357Z,81.08
2022-09-13T13:26:35.940Z,81.05
2022-09-13T13:29:07.844Z,81.24
2022-09-13T13:31:40.964Z,80.80
2022-09-13T13:34:18.302Z,81.08
2022-09-13T13:36:55.271Z,81.62
2022-09-13T13:39:29.380Z,81.21
2022-09-13T13:42:21.823Z,81.51
2022-09-13T13:44:56.556Z,81.49
2022-09-13T13:47:33.530Z,81.89
2022-09-13T13:50:21.634Z,81.64
2022-09-13T13:53:01.385Z,81.78
2022-09-13T13:55:52.054Z,81.53
2022-09-13T13:58:22.941Z,81.89
2022-09-13T14:00:56.678Z,81.50
2022-09-13T14:03:54.248Z,81.46
2022-09-13T14:06:40.309Z,81.84
2022-09-13T14:09:34.183Z,81.79
2022-09-13T14:12:23.241Z,81.81
2022-09-13T14:15:10.523Z,81.81
2022-09-13T14:18:01.594Z,81.82
2022-09-13T14:20:32.756Z,81.93
2022-09-13T14:23:23.074Z,81.83
2022-09-13T14:26:02.468Z,81.97
2022-09-13T14:28:35.731Z,82.24
2022-09-13T14:32:24.850Z,82.18
2022-09-13T14:35:04.722Z,82.04
2022-09-13T14:37:39.453Z,82.29
2022-09-13T14:40:25.919Z,82.22
2022-09-13T14:42:58.757Z,82.51
2022-09-13T14:45:29.634Z,82.69
2022-09-13T14:48:25.468Z,82.46
2022-09-13T14:51:35.255Z,82.38
2022-09-13T14:54:23.537Z,82.49
2022-09-13T14:57:02.064Z,82.46
2022-09-13T14:59:37.209Z,82.49
2022-09-13T15:02:35.423Z,82.70
2022-09-13T15:05:11.933Z,82.49
2022-09-13T15:07:44.655Z,82.48
2022-09-13T15:10:21.267Z,82.55
2022-09-13T15:13:10.032Z,82.67
2022-09-13T15:15:43.112Z,82.45
2022-09-13T15:18:20.001Z,82.63
2022-09-13T15:21:02.396Z,82.62
2022-09-13T15:23:34.234Z,82.43
2022-09-13T15:26:11.599Z,82.80
2022-09-13T15:28:48.581Z,82.72
2022-09-13T15:31:32.601Z,82.78
2022-09-13T15:34:21.501Z,83.04
2022-09-13T15:37:11.359Z,82.80
2022-09-13T15:39:51.089Z,82.95
2022-09-13T15:42:21.923Z,83.20
2022-09-13T15:44:52.770Z,83.46
2022-09-13T15:47:23.650Z,83.28
2022-09-13T15:49:55.458Z,83.13
2022-09-13T15:52:26.732Z,83.41
2022-09-13T15:54:57.298Z,83.15
2022-09-13T15:57:31.072Z,83.18
2022-09-13T16:00:06.181Z,83.55
2022-09-13T16:02:40.272Z,83.49
2022-09-13T16:05:11.377Z,83.48
2022-09-13T16:07:43.423Z,83.47
2022-09-13T16:10:18.368Z,83.49
2022-09-13T16:12:49.640Z,83.61
2022-09-13T16:15:20.181Z,83.35
2022-09-13T16:17:51.164Z,83.06
2022-09-13T16:20:22.778Z,83.10
2022-09-13T16:22:53.760Z,82.45
2022-09-13T16:25:25.126Z,82.22
2022-09-13T16:27:57.701Z,82.34
2022-09-13T16:30:30.623Z,82.03
2022-09-13T16:33:01.540Z,82.41
2022-09-13T16:35:33.917Z,82.03
2022-09-13T16:38:04.725Z,81.92
2022-09-13T16:40:35.520Z,82.04
2022-09-13T16:43:06.583Z,81.83
2022-09-13T16:45:37.819Z,81.92
2022-09-13T16:48:08.298Z,81.74
2022-09-13T16:50:42.487Z,81.58
2022-09-13T16:53:13.402Z,81.26
2022-09-13T16:55:44.575Z,81.33
2022-09-13T16:58:15.443Z,81.18
2022-09-13T17:00:47.582Z,81.43
2022-09-13T17:03:18.324Z,81.34
2022-09-13T17:06:01.004Z,80.84
2022-09-13T17:08:32.607Z,80.87
2022-09-13T17:11:07.372Z,80.58
2022-09-13T17:13:39.207Z,80.86
2022-09-13T17:16:21.570Z,80.69
2022-09-13T17:18:53.034Z,80.98
2022-09-13T17:21:24.995Z,80.97
2022-09-13T17:23:55.846Z,80.58
2022-09-13T17:26:26.631Z,80.98
2022-09-13T17:28:57.664Z,81.04
2022-09-13T17:31:28.631Z,80.75
2022-09-13T17:33:59.516Z,80.64
2022-09-13T17:36:30.512Z,80.82
2022-09-13T17:39:01.870Z,80.69
2022-09-13T17:41:33.004Z,80.52
2022-09-13T17:44:03.711Z,80.80
2022-09-13T17:46:34.712Z,80.36
2022-09-13T17:49:05.710Z,80.43
2022-09-13T17:51:37.161Z,80.18
2022-09-13T17:54:10.006Z,80.53
2022-09-13T17:56:44.857Z,80.43
2022-09-13T17:59:22.555Z,80.31
2022-09-13T18:01:55.904Z,80.28
2022-09-13T18:04:26.840Z,80.56
2022-09-13T18:06:58.626Z,80.53
2022-09-13T18:09:29.754Z,80.49
2022-09-13T18:12:00.522Z,80.47
2022-09-13T18:14:31.269Z,80.32
2022-09-13T18:17:02.450Z,80.44
2022-09-13T18:19:45.827Z,80.57
2022-09-13T18:22:17.615Z,80.23
2022-09-13T18:24:48.364Z,80.39
2022-09-13T18:27:19.279Z,80.13
2022-09-13T18:29:50.213Z,80.18
2022-09-13T18:32:21.227Z,80.34
2022-09-13T18:34:52.017Z,80.17
2022-09-13T18:37:22.929Z,80.03
2022-09-13T18:39:53.700Z,80.39
2022-09-13T18:42:24.420Z,80.21
2022-09-13T18:44:55.600Z,80.33
2022-09-13T18:47:26.384Z,80.23
2022-09-13T18:49:57.210Z,79.98
2022-09-13T18:52:27.991Z,79.93
2022-09-13T18:54:58.791Z,80.19
2022-09-13T18:57:30.508Z,80.18
2022-09-13T19:00:02.097Z,80.38
2022-09-13T19:02:34.061Z,80.28
2022-09-13T19:05:07.032Z,79.83
2022-09-13T19:07:38.631Z,80.28
2022-09-13T19:10:11.928Z,80.03
2022-09-13T19:12:46.286Z,80.28
2022-09-13T19:15:17.238Z,80.34
2022-09-13T19:17:48.396Z,80.03
2022-09-13T19:20:19.460Z,80.31
2022-09-13T19:22:50.149Z,80.18
2022-09-13T19:25:21.193Z,80.31
2022-09-13T19:27:51.953Z,79.76
2022-09-13T19:30:22.984Z,80.37
2022-09-13T19:32:53.840Z,80.12
2022-09-13T19:35:24.768Z,80.11
2022-09-13T19:37:56.661Z,79.79
2022-09-13T19:40:27.781Z,79.98
2022-09-13T19:42:58.513Z,79.95
2022-09-13T19:45:29.360Z,80.12
2022-09-13T19:48:37.004Z,79.57
2022-09-13T19:50:51.778Z,79.80
2022-09-13T19:53:35.543Z,79.80
2022-09-13T19:56:16.979Z,80.11
2022-09-13T19:58:48.391Z,80.10
2022-09-13T20:01:22.025Z,80.21
2022-09-13T20:04:05.002Z,80.13
2022-09-13T20:06:44.203Z,80.13
2022-09-13T20:09:16.790Z,80.12
2022-09-13T20:11:48.511Z,80.43
2022-09-13T20:14:22.197Z,80.21
2022-09-13T20:16:53.079Z,80.09
2022-09-13T20:19:40.632Z,80.40
2022-09-13T20:22:12.461Z,80.05
2022-09-13T20:24:43.191Z,80.37
2022-09-13T20:27:14.191Z,80.23
2022-09-13T20:29:44.926Z,80.10
2022-09-13T20:32:15.607Z,80.12
2022-09-13T20:34:46.101Z,80.50
2022-09-13T20:37:16.936Z,80.16
2022-09-13T20:40:06.444Z,79.93
2022-09-13T20:42:37.367Z,80.16
2022-09-13T20:45:08.671Z,79.97
2022-09-13T20:47:39.349Z,80.29
2022-09-13T20:50:10.583Z,79.96
2022-09-13T20:52:41.523Z,80.16
2022-09-13T20:55:12.556Z,79.82
2022-09-13T20:57:43.295Z,80.28
2022-09-13T21:00:15.253Z,80.22
2022-09-13T21:05:31.643Z,80.05
2022-09-13T21:08:21.138Z,80.23
2022-09-13T21:11:06.162Z,79.80
2022-09-13T21:13:39.232Z,80.27
2022-09-13T21:16:15.651Z,80.18
2022-09-13T21:18:47.209Z,80.04
2022-09-13T21:21:21.018Z,80.28
2022-09-13T21:23:51.782Z,80.20
2022-09-13T21:26:25.452Z,80.60
2022-09-13T21:28:57.624Z,80.66
2022-09-13T21:31:46.766Z,80.21
2022-09-13T21:34:22.137Z,80.56
2022-09-13T21:36:53.724Z,80.43
2022-09-13T21:39:24.475Z,80.42
2022-09-13T21:41:55.133Z,80.69
2022-09-13T21:44:25.862Z,80.23
2022-09-13T21:49:41.645Z,80.60
2022-09-13T21:52:12.424Z,80.51
2022-09-13T21:54:43.177Z,80.48
2022-09-13T21:57:13.816Z,80.25
2022-09-13T21:59:44.497Z,80.29
2022-09-13T22:02:33.828Z,80.14
2022-09-13T22:05:04.712Z,80.37
2022-09-13T22:07:36.328Z,80.21
2022-09-13T22:10:07.645Z,80.21
2022-09-13T22:12:38.103Z,80.18
2022-09-13T22:15:09.604Z,80.33
2022-09-13T22:17:39.862Z,80.51
2022-09-13T22:20:10.840Z,80.43
2022-09-13T22:22:41.470Z,80.56
2022-09-13T22:25:12.408Z,80.33
2022-09-13T22:27:43.767Z,81.00
2022-09-13T22:30:14.401Z,80.92
2022-09-13T22:32:45.219Z,80.69
2022-09-13T22:35:15.941Z,80.98
2022-09-13T22:37:46.783Z,81.11
2022-09-13T22:40:17.683Z,80.87
2022-09-13T22:42:48.358Z,80.96
2022-09-13T22:45:19.312Z,81.35
2022-09-13T22:47:50.059Z,80.98
2022-09-13T22:54:32.733Z,81.56
2022-09-13T22:57:03.545Z,81.52
2022-09-13T22:59:34.340Z,81.44
2022-09-13T23:02:05.206Z,81.66
2022-09-13T23:04:36.073Z,81.46
2022-09-13T23:07:06.798Z,81.58
2022-09-13T23:09:37.351Z,81.78
2022-09-13T23:12:08.351Z,81.71
2022-09-13T23:14:39.184Z,81.53
2022-09-13T23:17:09.948Z,81.65
2022-09-13T23:19:40.995Z,81.59
2022-09-13T23:22:11.696Z,81.71
2022-09-13T23:24:42.328Z,81.64
2022-09-13T23:27:13.113Z,81.32
2022-09-13T23:29:43.912Z,81.54
2022-09-13T23:32:14.790Z,81.82
2022-09-13T23:34:45.785Z,81.61
2022-09-13T23:37:16.617Z,81.64
2022-09-13T23:39:47.472Z,81.50
2022-09-13T23:42:18.328Z,81.54
2022-09-13T23:44:49.002Z,81.94
2022-09-13T23:47:20.049Z,81.74
2022-09-13T23:49:50.855Z,81.70
2022-09-13T23:52:21.831Z,81.89
2022-09-13T23:54:53.608Z,81.70
2022-09-13T23:57:27.546Z,81.73
2022-09-13T23:59:58.319Z,81.70
